sensor_id;sensor_type;location;lat;lon;timestamp;pressure;altitude;pressure_sealevel;temperature;humidity
28797;BME280;24974;54.444;18.560;2022-11-20T00:00:11;100966.56;;;0.95;64.62
28797;BME280;24974;54.444;18.560;2022-11-20T00:02:42;100961.84;;;2.05;63.09
28797;BME280;24974;54.444;18.560;2022-11-20T00:05:13;100967.66;;;1.80;63.16
28797;BME280;24974;54.444;18.560;2022-11-20T00:07:44;100967.66;;;1.96;62.44
28797;BME280;24974;54.444;18.560;2022-11-20T00:10:15;100960.59;;;1.95;62.60
28797;BME280;24974;54.444;18.560;2022-11-20T00:12:45;100963.75;;;1.59;63.21
28797;BME280;24974;54.444;18.560;2022-11-20T00:15:16;100963.00;;;2.26;61.50
28797;BME280;24974;54.444;18.560;2022-11-20T00:17:47;100967.84;;;1.45;64.01
28797;BME280;24974;54.444;18.560;2022-11-20T00:20:18;100955.19;;;1.50;63.46
28797;BME280;24974;54.444;18.560;2022-11-20T00:22:50;100966.81;;;1.62;64.08
28797;BME280;24974;54.444;18.560;2022-11-20T00:25:21;100956.69;;;1.58;63.27
28797;BME280;24974;54.444;18.560;2022-11-20T00:27:52;100956.03;;;1.67;63.77
28797;BME280;24974;54.444;18.560;2022-11-20T00:30:22;100955.59;;;1.42;64.51
28797;BME280;24974;54.444;18.560;2022-11-20T00:32:56;100957.47;;;1.70;63.77
28797;BME280;24974;54.444;18.560;2022-11-20T00:35:27;100951.91;;;1.77;63.68
28797;BME280;24974;54.444;18.560;2022-11-20T00:37:57;100950.56;;;1.62;63.94
28797;BME280;24974;54.444;18.560;2022-11-20T00:40:28;100955.84;;;2.19;62.34
28797;BME280;24974;54.444;18.560;2022-11-20T00:42:59;100953.34;;;1.84;62.95
28797;BME280;24974;54.444;18.560;2022-11-20T00:45:30;100950.59;;;1.96;62.76
28797;BME280;24974;54.444;18.560;2022-11-20T00:48:01;100956.41;;;1.88;63.33
28797;BME280;24974;54.444;18.560;2022-11-20T00:50:32;100960.09;;;1.36;64.62
28797;BME280;24974;54.444;18.560;2022-11-20T00:53:03;100960.97;;;1.54;63.98
28797;BME280;24974;54.444;18.560;2022-11-20T00:55:34;100958.94;;;1.61;63.79
28797;BME280;24974;54.444;18.560;2022-11-20T00:58:04;100970.22;;;1.01;65.48
28797;BME280;24974;54.444;18.560;2022-11-20T01:00:35;100958.50;;;1.24;65.16
28797;BME280;24974;54.444;18.560;2022-11-20T01:03:06;100965.88;;;1.28;64.54
28797;BME280;24974;54.444;18.560;2022-11-20T01:05:37;100964.66;;;1.07;65.69
28797;BME280;24974;54.444;18.560;2022-11-20T01:08:08;100966.13;;;1.27;64.24
28797;BME280;24974;54.444;18.560;2022-11-20T01:10:39;100961.69;;;0.69;67.14
28797;BME280;24974;54.444;18.560;2022-11-20T01:13:10;100965.16;;;1.04;65.04
28797;BME280;24974;54.444;18.560;2022-11-20T01:16:13;100967.78;;;0.64;66.65
28797;BME280;24974;54.444;18.560;2022-11-20T01:18:46;100960.78;;;1.03;65.68
28797;BME280;24974;54.444;18.560;2022-11-20T01:21:23;100961.56;;;0.75;67.03
28797;BME280;24974;54.444;18.560;2022-11-20T01:23:55;100966.03;;;1.22;64.72
28797;BME280;24974;54.444;18.560;2022-11-20T01:26:29;100962.88;;;1.13;65.27
28797;BME280;24974;54.444;18.560;2022-11-20T01:29:02;100968.38;;;1.75;63.09
28797;BME280;24974;54.444;18.560;2022-11-20T01:31:35;100958.34;;;1.30;64.39
28797;BME280;24974;54.444;18.560;2022-11-20T01:34:09;100964.09;;;1.34;63.54
28797;BME280;24974;54.444;18.560;2022-11-20T01:36:41;100968.31;;;1.13;64.88
28797;BME280;24974;54.444;18.560;2022-11-20T01:39:15;100965.31;;;1.55;63.85
28797;BME280;24974;54.444;18.560;2022-11-20T01:41:48;100963.06;;;1.97;62.48
28797;BME280;24974;54.444;18.560;2022-11-20T01:44:58;100967.19;;;1.26;63.60
28797;BME280;24974;54.444;18.560;2022-11-20T01:47:37;100968.56;;;1.40;64.58
28797;BME280;24974;54.444;18.560;2022-11-20T01:50:15;100968.66;;;1.45;64.15
28797;BME280;24974;54.444;18.560;2022-11-20T01:53:02;100968.31;;;1.42;64.29
28797;BME280;24974;54.444;18.560;2022-11-20T01:55:37;100966.03;;;1.22;64.00
28797;BME280;24974;54.444;18.560;2022-11-20T01:58:11;100958.81;;;1.56;64.00
28797;BME280;24974;54.444;18.560;2022-11-20T02:00:42;100970.13;;;1.81;62.83
28797;BME280;24974;54.444;18.560;2022-11-20T02:03:17;100966.59;;;1.52;63.76
28797;BME280;24974;54.444;18.560;2022-11-20T02:06:07;100967.94;;;1.66;63.17
28797;BME280;24974;54.444;18.560;2022-11-20T02:08:40;100963.13;;;1.68;62.76
28797;BME280;24974;54.444;18.560;2022-11-20T02:11:11;100957.22;;;1.72;63.22
28797;BME280;24974;54.444;18.560;2022-11-20T02:13:43;100963.81;;;1.47;63.23
28797;BME280;24974;54.444;18.560;2022-11-20T02:16:18;100967.25;;;1.88;62.61
28797;BME280;24974;54.444;18.560;2022-11-20T02:18:51;100964.72;;;2.15;62.05
28797;BME280;24974;54.444;18.560;2022-11-20T02:26:40;100970.69;;;1.83;62.89
28797;BME280;24974;54.444;18.560;2022-11-20T02:29:15;100972.91;;;1.86;62.62
28797;BME280;24974;54.444;18.560;2022-11-20T02:31:47;100965.31;;;2.17;61.87
28797;BME280;24974;54.444;18.560;2022-11-20T02:34:18;100964.22;;;2.18;61.30
28797;BME280;24974;54.444;18.560;2022-11-20T02:36:49;100961.31;;;1.91;62.55
28797;BME280;24974;54.444;18.560;2022-11-20T02:39:23;100961.03;;;1.59;62.98
28797;BME280;24974;54.444;18.560;2022-11-20T02:41:56;100960.22;;;1.58;63.53
28797;BME280;24974;54.444;18.560;2022-11-20T02:44:27;100946.81;;;1.52;62.53
28797;BME280;24974;54.444;18.560;2022-11-20T02:46:58;100955.44;;;1.77;62.71
28797;BME280;24974;54.444;18.560;2022-11-20T02:49:29;100960.03;;;1.48;62.91
28797;BME280;24974;54.444;18.560;2022-11-20T02:52:00;100953.53;;;1.94;62.09
28797;BME280;24974;54.444;18.560;2022-11-20T02:54:31;100950.63;;;1.84;61.88
28797;BME280;24974;54.444;18.560;2022-11-20T02:57:02;100954.78;;;1.87;61.93
28797;BME280;24974;54.444;18.560;2022-11-20T02:59:33;100947.97;;;1.39;62.75
28797;BME280;24974;54.444;18.560;2022-11-20T03:02:04;100944.41;;;1.84;62.24
28797;BME280;24974;54.444;18.560;2022-11-20T03:04:35;100938.63;;;1.47;63.10
28797;BME280;24974;54.444;18.560;2022-11-20T03:07:07;100943.66;;;1.72;63.14
28797;BME280;24974;54.444;18.560;2022-11-20T03:09:38;100944.50;;;1.44;63.33
28797;BME280;24974;54.444;18.560;2022-11-20T03:12:09;100940.00;;;1.78;62.78
28797;BME280;24974;54.444;18.560;2022-11-20T03:14:40;100938.66;;;1.63;62.32
28797;BME280;24974;54.444;18.560;2022-11-20T03:17:11;100933.97;;;1.76;62.23
28797;BME280;24974;54.444;18.560;2022-11-20T03:19:42;100944.50;;;1.89;62.00
28797;BME280;24974;54.444;18.560;2022-11-20T03:22:13;100941.47;;;1.68;62.29
28797;BME280;24974;54.444;18.560;2022-11-20T03:24:44;100948.81;;;1.28;63.44
28797;BME280;24974;54.444;18.560;2022-11-20T03:27:14;100946.34;;;1.26;63.62
28797;BME280;24974;54.444;18.560;2022-11-20T03:29:45;100946.13;;;1.73;63.10
28797;BME280;24974;54.444;18.560;2022-11-20T03:32:16;100943.19;;;1.29;63.58
28797;BME280;24974;54.444;18.560;2022-11-20T03:34:47;100936.72;;;1.47;63.27
28797;BME280;24974;54.444;18.560;2022-11-20T03:37:18;100928.97;;;1.84;61.91
28797;BME280;24974;54.444;18.560;2022-11-20T03:39:49;100936.31;;;2.01;61.39
28797;BME280;24974;54.444;18.560;2022-11-20T03:42:19;100933.81;;;1.08;63.93
28797;BME280;24974;54.444;18.560;2022-11-20T03:45:08;100925.00;;;1.58;62.24
28797;BME280;24974;54.444;18.560;2022-11-20T03:47:40;100921.75;;;2.62;59.79
28797;BME280;24974;54.444;18.560;2022-11-20T03:50:12;100919.44;;;1.99;60.90
28797;BME280;24974;54.444;18.560;2022-11-20T03:52:44;100916.00;;;1.53;62.81
28797;BME280;24974;54.444;18.560;2022-11-20T03:55:15;100926.72;;;1.48;62.79
28797;BME280;24974;54.444;18.560;2022-11-20T03:57:46;100916.72;;;1.82;62.40
28797;BME280;24974;54.444;18.560;2022-11-20T04:00:17;100910.25;;;1.83;61.50
28797;BME280;24974;54.444;18.560;2022-11-20T04:02:48;100911.75;;;2.46;60.23
28797;BME280;24974;54.444;18.560;2022-11-20T04:05:19;100909.34;;;2.11;60.61
28797;BME280;24974;54.444;18.560;2022-11-20T04:07:50;100912.63;;;2.13;59.82
28797;BME280;24974;54.444;18.560;2022-11-20T04:10:20;100917.31;;;1.84;61.40
28797;BME280;24974;54.444;18.560;2022-11-20T04:12:51;100911.91;;;2.01;61.54
28797;BME280;24974;54.444;18.560;2022-11-20T04:15:22;100906.47;;;2.17;61.03
28797;BME280;24974;54.444;18.560;2022-11-20T04:17:53;100912.72;;;1.22;63.09
28797;BME280;24974;54.444;18.560;2022-11-20T04:20:24;100910.91;;;1.73;62.63
28797;BME280;24974;54.444;18.560;2022-11-20T04:22:55;100907.97;;;1.29;63.62
28797;BME280;24974;54.444;18.560;2022-11-20T04:25:26;100911.59;;;1.52;63.38
28797;BME280;24974;54.444;18.560;2022-11-20T04:27:57;100913.41;;;1.29;63.76
28797;BME280;24974;54.444;18.560;2022-11-20T04:30:28;100901.03;;;1.84;62.67
28797;BME280;24974;54.444;18.560;2022-11-20T04:32:58;100907.47;;;1.78;62.36
28797;BME280;24974;54.444;18.560;2022-11-20T04:35:29;100910.38;;;1.43;63.00
28797;BME280;24974;54.444;18.560;2022-11-20T04:38:01;100904.16;;;1.76;61.44
28797;BME280;24974;54.444;18.560;2022-11-20T04:40:32;100884.38;;;2.09;60.67
28797;BME280;24974;54.444;18.560;2022-11-20T04:43:03;100887.84;;;1.54;62.22
28797;BME280;24974;54.444;18.560;2022-11-20T04:45:33;100888.25;;;1.62;62.36
28797;BME280;24974;54.444;18.560;2022-11-20T04:48:04;100885.50;;;1.29;62.84
28797;BME280;24974;54.444;18.560;2022-11-20T04:50:39;100885.94;;;1.54;62.48
28797;BME280;24974;54.444;18.560;2022-11-20T04:53:11;100887.16;;;1.47;62.68
28797;BME280;24974;54.444;18.560;2022-11-20T04:55:42;100883.34;;;1.02;64.54
28797;BME280;24974;54.444;18.560;2022-11-20T04:58:13;100884.75;;;1.33;63.31
28797;BME280;24974;54.444;18.560;2022-11-20T05:00:44;100879.00;;;1.30;63.26
28797;BME280;24974;54.444;18.560;2022-11-20T05:03:15;100882.72;;;0.83;64.92
28797;BME280;24974;54.444;18.560;2022-11-20T05:05:46;100883.28;;;0.57;65.54
28797;BME280;24974;54.444;18.560;2022-11-20T05:08:17;100874.91;;;1.44;63.86
28797;BME280;24974;54.444;18.560;2022-11-20T05:10:48;100869.50;;;1.44;62.93
28797;BME280;24974;54.444;18.560;2022-11-20T05:13:18;100869.19;;;1.40;62.96
28797;BME280;24974;54.444;18.560;2022-11-20T05:15:49;100881.91;;;1.11;63.87
28797;BME280;24974;54.444;18.560;2022-11-20T05:18:20;100874.41;;;1.02;64.21
28797;BME280;24974;54.444;18.560;2022-11-20T05:20:55;100872.84;;;0.89;64.22
28797;BME280;24974;54.444;18.560;2022-11-20T05:23:27;100870.75;;;1.36;63.29
28797;BME280;24974;54.444;18.560;2022-11-20T05:25:58;100873.34;;;1.03;64.06
28797;BME280;24974;54.444;18.560;2022-11-20T05:28:30;100868.47;;;1.17;62.76
28797;BME280;24974;54.444;18.560;2022-11-20T05:31:12;100866.56;;;0.60;63.89
28797;BME280;24974;54.444;18.560;2022-11-20T05:33:44;100875.69;;;0.07;65.32
28797;BME280;24974;54.444;18.560;2022-11-20T05:36:16;100871.69;;;0.21;65.23
28797;BME280;24974;54.444;18.560;2022-11-20T05:38:47;100870.13;;;0.49;64.43
28797;BME280;24974;54.444;18.560;2022-11-20T05:41:20;100864.56;;;0.55;63.72
28797;BME280;24974;54.444;18.560;2022-11-20T05:43:51;100870.25;;;-0.16;65.71
28797;BME280;24974;54.444;18.560;2022-11-20T05:46:22;100869.25;;;0.08;65.31
28797;BME280;24974;54.444;18.560;2022-11-20T05:48:52;100864.94;;;0.59;64.20
28797;BME280;24974;54.444;18.560;2022-11-20T05:51:24;100865.44;;;0.33;64.24
28797;BME280;24974;54.444;18.560;2022-11-20T05:53:56;100860.25;;;0.43;64.75
28797;BME280;24974;54.444;18.560;2022-11-20T05:56:28;100858.91;;;0.69;63.49
28797;BME280;24974;54.444;18.560;2022-11-20T05:58:59;100867.44;;;0.77;62.85
28797;BME280;24974;54.444;18.560;2022-11-20T06:01:30;100861.59;;;1.26;61.71
28797;BME280;24974;54.444;18.560;2022-11-20T06:04:00;100859.88;;;0.91;61.62
28797;BME280;24974;54.444;18.560;2022-11-20T06:06:31;100853.25;;;0.70;62.62
28797;BME280;24974;54.444;18.560;2022-11-20T06:09:02;100861.41;;;0.87;61.76
28797;BME280;24974;54.444;18.560;2022-11-20T06:11:33;100864.56;;;0.67;61.96
28797;BME280;24974;54.444;18.560;2022-11-20T06:14:04;100858.81;;;0.52;62.86
28797;BME280;24974;54.444;18.560;2022-11-20T06:16:35;100859.25;;;1.01;60.93
28797;BME280;24974;54.444;18.560;2022-11-20T06:19:06;100855.88;;;0.53;62.10
28797;BME280;24974;54.444;18.560;2022-11-20T06:21:36;100850.88;;;1.31;60.13
28797;BME280;24974;54.444;18.560;2022-11-20T06:24:09;100863.66;;;1.52;59.07
28797;BME280;24974;54.444;18.560;2022-11-20T06:26:40;100858.16;;;1.30;59.51
28797;BME280;24974;54.444;18.560;2022-11-20T06:29:11;100854.31;;;1.60;58.79
28797;BME280;24974;54.444;18.560;2022-11-20T06:31:42;100860.47;;;1.38;59.02
28797;BME280;24974;54.444;18.560;2022-11-20T06:34:13;100859.56;;;1.33;58.73
28797;BME280;24974;54.444;18.560;2022-11-20T06:36:43;100865.53;;;1.18;59.87
28797;BME280;24974;54.444;18.560;2022-11-20T06:39:14;100863.00;;;1.28;59.29
28797;BME280;24974;54.444;18.560;2022-11-20T06:41:45;100871.09;;;1.28;58.81
28797;BME280;24974;54.444;18.560;2022-11-20T06:44:16;100866.78;;;0.99;60.02
28797;BME280;24974;54.444;18.560;2022-11-20T06:46:46;100865.38;;;0.96;60.61
28797;BME280;24974;54.444;18.560;2022-11-20T06:49:17;100862.16;;;1.28;58.68
28797;BME280;24974;54.444;18.560;2022-11-20T06:51:48;100867.84;;;1.43;58.26
28797;BME280;24974;54.444;18.560;2022-11-20T06:54:19;100878.25;;;1.34;58.68
28797;BME280;24974;54.444;18.560;2022-11-20T06:56:49;100875.50;;;1.29;58.54
28797;BME280;24974;54.444;18.560;2022-11-20T06:59:20;100879.44;;;1.38;58.64
28797;BME280;24974;54.444;18.560;2022-11-20T07:01:51;100891.72;;;1.29;58.70
28797;BME280;24974;54.444;18.560;2022-11-20T07:04:22;100887.41;;;0.88;59.67
28797;BME280;24974;54.444;18.560;2022-11-20T07:06:53;100891.97;;;0.59;61.04
28797;BME280;24974;54.444;18.560;2022-11-20T07:09:24;100886.41;;;1.06;59.93
28797;BME280;24974;54.444;18.560;2022-11-20T07:11:55;100885.66;;;1.22;59.37
28797;BME280;24974;54.444;18.560;2022-11-20T07:14:26;100878.63;;;0.81;60.05
28797;BME280;24974;54.444;18.560;2022-11-20T07:16:57;100885.00;;;0.75;60.09
28797;BME280;24974;54.444;18.560;2022-11-20T07:19:27;100880.63;;;1.14;59.04
28797;BME280;24974;54.444;18.560;2022-11-20T07:21:58;100879.59;;;1.03;60.02
28797;BME280;24974;54.444;18.560;2022-11-20T07:24:29;100875.53;;;1.18;58.90
28797;BME280;24974;54.444;18.560;2022-11-20T07:27:00;100865.75;;;1.45;58.88
28797;BME280;24974;54.444;18.560;2022-11-20T07:29:31;100865.34;;;1.70;58.17
28797;BME280;24974;54.444;18.560;2022-11-20T07:32:03;100852.50;;;1.82;58.15
28797;BME280;24974;54.444;18.560;2022-11-20T07:34:34;100865.66;;;1.74;58.00
28797;BME280;24974;54.444;18.560;2022-11-20T07:37:05;100869.53;;;1.94;57.68
28797;BME280;24974;54.444;18.560;2022-11-20T07:39:36;100867.97;;;1.65;57.95
28797;BME280;24974;54.444;18.560;2022-11-20T07:42:07;100867.97;;;1.82;58.00
28797;BME280;24974;54.444;18.560;2022-11-20T07:44:41;100867.06;;;1.93;57.46
28797;BME280;24974;54.444;18.560;2022-11-20T07:47:12;100868.69;;;1.60;58.42
28797;BME280;24974;54.444;18.560;2022-11-20T07:49:42;100873.94;;;1.67;58.55
28797;BME280;24974;54.444;18.560;2022-11-20T07:52:13;100865.78;;;1.33;60.02
28797;BME280;24974;54.444;18.560;2022-11-20T07:54:44;100856.66;;;2.23;57.00
28797;BME280;24974;54.444;18.560;2022-11-20T07:57:15;100857.03;;;2.32;57.25
28797;BME280;24974;54.444;18.560;2022-11-20T07:59:45;100854.56;;;2.31;57.31
28797;BME280;24974;54.444;18.560;2022-11-20T08:02:16;100856.13;;;2.43;56.94
28797;BME280;24974;54.444;18.560;2022-11-20T08:04:47;100857.13;;;1.65;58.47
28797;BME280;24974;54.444;18.560;2022-11-20T08:07:18;100849.66;;;1.55;60.28
28797;BME280;24974;54.444;18.560;2022-11-20T08:09:48;100854.50;;;1.70;60.44
28797;BME280;24974;54.444;18.560;2022-11-20T08:12:20;100855.16;;;1.77;59.61
28797;BME280;24974;54.444;18.560;2022-11-20T08:15:10;100849.41;;;1.74;60.04
28797;BME280;24974;54.444;18.560;2022-11-20T08:17:41;100853.44;;;2.27;59.29
28797;BME280;24974;54.444;18.560;2022-11-20T08:20:12;100844.16;;;2.22;58.98
28797;BME280;24974;54.444;18.560;2022-11-20T08:22:43;100860.91;;;1.64;60.45
28797;BME280;24974;54.444;18.560;2022-11-20T08:25:14;100851.56;;;1.55;60.69
28797;BME280;24974;54.444;18.560;2022-11-20T08:27:45;100855.44;;;2.14;59.45
28797;BME280;24974;54.444;18.560;2022-11-20T08:30:16;100850.38;;;1.34;61.55
28797;BME280;24974;54.444;18.560;2022-11-20T08:32:47;100848.81;;;2.05;60.35
28797;BME280;24974;54.444;18.560;2022-11-20T08:35:18;100838.84;;;2.49;58.71
28797;BME280;24974;54.444;18.560;2022-11-20T08:37:49;100836.41;;;2.31;59.01
28797;BME280;24974;54.444;18.560;2022-11-20T08:40:20;100829.50;;;2.02;59.52
28797;BME280;24974;54.444;18.560;2022-11-20T08:42:51;100829.19;;;2.59;58.37
28797;BME280;24974;54.444;18.560;2022-11-20T08:45:22;100820.91;;;2.27;58.81
28797;BME280;24974;54.444;18.560;2022-11-20T08:47:52;100825.56;;;1.92;59.80
28797;BME280;24974;54.444;18.560;2022-11-20T08:50:23;100821.00;;;2.15;59.79
28797;BME280;24974;54.444;18.560;2022-11-20T08:52:54;100817.09;;;2.06;60.02
28797;BME280;24974;54.444;18.560;2022-11-20T08:55:25;100821.63;;;1.83;60.35
28797;BME280;24974;54.444;18.560;2022-11-20T08:57:56;100819.03;;;2.27;59.74
28797;BME280;24974;54.444;18.560;2022-11-20T09:00:27;100823.97;;;2.13;59.68
28797;BME280;24974;54.444;18.560;2022-11-20T09:02:58;100820.75;;;1.78;61.08
28797;BME280;24974;54.444;18.560;2022-11-20T09:05:29;100818.22;;;1.71;61.46
28797;BME280;24974;54.444;18.560;2022-11-20T09:08:00;100817.56;;;2.19;59.93
28797;BME280;24974;54.444;18.560;2022-11-20T09:10:31;100819.28;;;2.26;59.73
28797;BME280;24974;54.444;18.560;2022-11-20T09:13:02;100811.13;;;2.47;59.21
28797;BME280;24974;54.444;18.560;2022-11-20T09:15:34;100809.59;;;2.57;59.19
28797;BME280;24974;54.444;18.560;2022-11-20T09:18:04;100808.69;;;2.95;57.83
28797;BME280;24974;54.444;18.560;2022-11-20T09:20:35;100810.94;;;2.54;59.92
28797;BME280;24974;54.444;18.560;2022-11-20T09:23:06;100809.81;;;2.50;59.17
28797;BME280;24974;54.444;18.560;2022-11-20T09:25:37;100814.06;;;2.02;60.16
28797;BME280;24974;54.444;18.560;2022-11-20T09:28:07;100805.38;;;2.22;60.74
28797;BME280;24974;54.444;18.560;2022-11-20T09:30:38;100794.16;;;2.57;59.12
28797;BME280;24974;54.444;18.560;2022-11-20T09:33:09;100790.13;;;2.60;59.87
28797;BME280;24974;54.444;18.560;2022-11-20T09:35:40;100785.03;;;2.90;58.61
28797;BME280;24974;54.444;18.560;2022-11-20T09:38:11;100788.41;;;2.53;58.99
28797;BME280;24974;54.444;18.560;2022-11-20T09:44:16;100774.66;;;3.46;57.00
28797;BME280;24974;54.444;18.560;2022-11-20T09:55:39;100783.69;;;2.66;59.78
28797;BME280;24974;54.444;18.560;2022-11-20T09:58:26;100773.38;;;3.22;58.12
28797;BME280;24974;54.444;18.560;2022-11-20T10:01:12;100775.34;;;2.99;58.21
28797;BME280;24974;54.444;18.560;2022-11-20T10:04:15;100778.72;;;2.58;60.00
28797;BME280;24974;54.444;18.560;2022-11-20T10:09:35;100774.63;;;3.09;58.94
28797;BME280;24974;54.444;18.560;2022-11-20T10:17:58;100759.91;;;2.78;59.78
28797;BME280;24974;54.444;18.560;2022-11-20T10:20:40;100755.84;;;2.53;60.19
28797;BME280;24974;54.444;18.560;2022-11-20T10:34:53;100742.94;;;3.57;57.77
28797;BME280;24974;54.444;18.560;2022-11-20T10:37:30;100754.09;;;2.91;59.49
28797;BME280;24974;54.444;18.560;2022-11-20T10:45:45;100743.38;;;3.06;59.99
28797;BME280;24974;54.444;18.560;2022-11-20T10:48:26;100748.53;;;3.40;59.31
28797;BME280;24974;54.444;18.560;2022-11-20T10:56:53;100748.53;;;2.54;61.14
28797;BME280;24974;54.444;18.560;2022-11-20T11:02:24;100740.84;;;2.46;61.79
28797;BME280;24974;54.444;18.560;2022-11-20T11:04:55;100736.03;;;2.75;61.03
28797;BME280;24974;54.444;18.560;2022-11-20T11:07:37;100734.34;;;3.01;60.01
28797;BME280;24974;54.444;18.560;2022-11-20T11:10:18;100732.97;;;2.98;60.50
28797;BME280;24974;54.444;18.560;2022-11-20T11:12:49;100726.03;;;3.13;59.97
28797;BME280;24974;54.444;18.560;2022-11-20T11:15:40;100729.72;;;3.76;58.95
28797;BME280;24974;54.444;18.560;2022-11-20T11:18:22;100713.78;;;3.89;58.00
28797;BME280;24974;54.444;18.560;2022-11-20T11:20:54;100717.94;;;3.18;59.65
28797;BME280;24974;54.444;18.560;2022-11-20T11:23:31;100723.34;;;2.86;60.15
28797;BME280;24974;54.444;18.560;2022-11-20T11:26:05;100721.44;;;3.13;60.22
28797;BME280;24974;54.444;18.560;2022-11-20T11:28:36;100715.22;;;3.55;58.88
28797;BME280;24974;54.444;18.560;2022-11-20T11:31:08;100721.25;;;3.67;57.77
28797;BME280;24974;54.444;18.560;2022-11-20T11:33:39;100717.00;;;3.39;59.38
28797;BME280;24974;54.444;18.560;2022-11-20T11:36:22;100713.19;;;3.82;57.52
28797;BME280;24974;54.444;18.560;2022-11-20T11:38:55;100712.28;;;4.19;56.19
28797;BME280;24974;54.444;18.560;2022-11-20T11:41:30;100711.19;;;3.62;57.91
28797;BME280;24974;54.444;18.560;2022-11-20T11:47:21;100704.16;;;4.39;56.03
28797;BME280;24974;54.444;18.560;2022-11-20T11:53:13;100707.41;;;3.26;59.37
28797;BME280;24974;54.444;18.560;2022-11-20T12:01:34;100692.66;;;3.17;59.32
28797;BME280;24974;54.444;18.560;2022-11-20T12:07:10;100684.44;;;3.97;57.65
28797;BME280;24974;54.444;18.560;2022-11-20T12:09:48;100685.91;;;3.62;58.30
28797;BME280;24974;54.444;18.560;2022-11-20T12:12:42;100679.72;;;3.72;58.63
28797;BME280;24974;54.444;18.560;2022-11-20T12:15:25;100673.38;;;3.14;59.70
28797;BME280;24974;54.444;18.560;2022-11-20T12:17:57;100676.03;;;3.46;59.69
28797;BME280;24974;54.444;18.560;2022-11-20T12:20:37;100670.69;;;2.82;60.32
28797;BME280;24974;54.444;18.560;2022-11-20T12:25:54;100666.88;;;3.20;59.85
28797;BME280;24974;54.444;18.560;2022-11-20T12:34:24;100662.97;;;3.43;59.50
28797;BME280;24974;54.444;18.560;2022-11-20T12:39:49;100650.00;;;3.60;58.81
28797;BME280;24974;54.444;18.560;2022-11-20T12:45:33;100644.94;;;3.26;59.76
28797;BME280;24974;54.444;18.560;2022-11-20T12:48:58;100637.53;;;2.79;60.23
28797;BME280;24974;54.444;18.560;2022-11-20T12:54:31;100638.91;;;3.14;60.03
28797;BME280;24974;54.444;18.560;2022-11-20T13:05:58;100622.75;;;3.40;60.01
28797;BME280;24974;54.444;18.560;2022-11-20T13:08:36;100619.50;;;3.00;61.31
28797;BME280;24974;54.444;18.560;2022-11-20T13:13:54;100619.72;;;2.94;61.78
28797;BME280;24974;54.444;18.560;2022-11-20T13:19:12;100609.25;;;3.07;61.65
28797;BME280;24974;54.444;18.560;2022-11-20T13:21:48;100608.22;;;3.14;61.48
28797;BME280;24974;54.444;18.560;2022-11-20T13:29:58;100609.63;;;2.84;62.65
28797;BME280;24974;54.444;18.560;2022-11-20T13:32:30;100605.97;;;3.05;62.88
28797;BME280;24974;54.444;18.560;2022-11-20T13:35:04;100602.81;;;3.24;62.06
28797;BME280;24974;54.444;18.560;2022-11-20T13:37:37;100597.81;;;3.53;60.63
28797;BME280;24974;54.444;18.560;2022-11-20T13:42:54;100598.00;;;2.94;62.28
28797;BME280;24974;54.444;18.560;2022-11-20T13:45:32;100593.41;;;2.57;63.87
28797;BME280;24974;54.444;18.560;2022-11-20T13:48:15;100593.28;;;2.42;64.16
28797;BME280;24974;54.444;18.560;2022-11-20T14:00:21;100585.91;;;2.69;63.30
28797;BME280;24974;54.444;18.560;2022-11-20T14:05:39;100591.44;;;2.85;63.32
28797;BME280;24974;54.444;18.560;2022-11-20T14:08:25;100578.66;;;3.22;62.36
28797;BME280;24974;54.444;18.560;2022-11-20T14:11:20;100574.69;;;3.50;61.29
28797;BME280;24974;54.444;18.560;2022-11-20T14:14:13;100582.84;;;3.45;61.62
28797;BME280;24974;54.444;18.560;2022-11-20T14:16:44;100581.59;;;2.73;63.55
28797;BME280;24974;54.444;18.560;2022-11-20T14:24:41;100574.81;;;3.13;62.49
28797;BME280;24974;54.444;18.560;2022-11-20T14:27:20;100571.13;;;3.40;62.07
28797;BME280;24974;54.444;18.560;2022-11-20T14:29:51;100570.00;;;3.30;62.31
28797;BME280;24974;54.444;18.560;2022-11-20T14:32:27;100565.03;;;3.17;62.47
28797;BME280;24974;54.444;18.560;2022-11-20T14:35:06;100565.25;;;3.63;61.71
28797;BME280;24974;54.444;18.560;2022-11-20T14:37:40;100560.66;;;3.11;62.70
28797;BME280;24974;54.444;18.560;2022-11-20T14:40:33;100561.13;;;2.98;63.71
28797;BME280;24974;54.444;18.560;2022-11-20T14:43:25;100564.00;;;2.44;65.21
28797;BME280;24974;54.444;18.560;2022-11-20T14:46:02;100556.19;;;2.90;64.03
28797;BME280;24974;54.444;18.560;2022-11-20T14:51:11;100546.63;;;3.24;62.96
28797;BME280;24974;54.444;18.560;2022-11-20T14:53:42;100559.25;;;2.98;63.60
28797;BME280;24974;54.444;18.560;2022-11-20T14:56:21;100550.34;;;2.66;64.92
28797;BME280;24974;54.444;18.560;2022-11-20T14:58:56;100560.97;;;2.40;65.86
28797;BME280;24974;54.444;18.560;2022-11-20T15:01:29;100549.09;;;2.89;64.29
28797;BME280;24974;54.444;18.560;2022-11-20T15:04:09;100540.38;;;3.24;63.30
28797;BME280;24974;54.444;18.560;2022-11-20T15:06:53;100537.38;;;2.73;64.79
28797;BME280;24974;54.444;18.560;2022-11-20T15:09:24;100536.28;;;3.26;63.33
28797;BME280;24974;54.444;18.560;2022-11-20T15:11:58;100534.75;;;2.51;65.71
28797;BME280;24974;54.444;18.560;2022-11-20T15:14:30;100533.00;;;3.14;64.27
28797;BME280;24974;54.444;18.560;2022-11-20T15:17:03;100524.81;;;3.09;64.57
28797;BME280;24974;54.444;18.560;2022-11-20T15:19:33;100523.09;;;2.93;65.02
28797;BME280;24974;54.444;18.560;2022-11-20T15:22:10;100525.91;;;3.08;64.15
28797;BME280;24974;54.444;18.560;2022-11-20T15:24:43;100517.41;;;3.57;62.75
28797;BME280;24974;54.444;18.560;2022-11-20T15:27:14;100524.34;;;3.22;63.64
28797;BME280;24974;54.444;18.560;2022-11-20T15:29:45;100517.81;;;3.28;63.06